createdAt,value
2022-08-14T00:02:03.251Z,9.95
2022-08-14T00:04:35.703Z,13.18
2022-08-14T00:07:11.248Z,12.15
2022-08-14T00:09:55.496Z,11.18
2022-08-14T00:12:33.562Z,12.75
2022-08-14T00:15:29.850Z,16.35
2022-08-14T00:18:06.738Z,9.73
2022-08-14T00:20:43.068Z,11.68
2022-08-14T00:23:14.620Z,13.38
2022-08-14T00:25:53.683Z,10.88
2022-08-14T00:31:01.997Z,14.40
2022-08-14T00:33:52.084Z,11.70
2022-08-14T00:36:37.229Z,10.70
2022-08-14T00:39:06.647Z,15.35
2022-08-14T00:41:36.731Z,11.90
2022-08-14T00:44:06.144Z,13.15
2022-08-14T00:46:33.482Z,13.15
2022-08-14T00:49:02.105Z,13.18
2022-08-14T00:51:34.661Z,12.07
2022-08-14T00:54:16.961Z,14.57
2022-08-14T00:56:50.575Z,13.05
2022-08-14T00:59:17.497Z,14.52
2022-08-14T01:01:45.363Z,13.15
2022-08-14T01:04:37.973Z,14.30
2022-08-14T01:07:00.990Z,13.45
2022-08-14T01:09:36.724Z,13.40
2022-08-14T01:12:05.552Z,12.30
2022-08-14T01:14:34.921Z,11.98
2022-08-14T01:17:04.436Z,13.77
2022-08-14T01:19:49.960Z,13.32
2022-08-14T01:22:20.814Z,13.85
2022-08-14T01:24:53.518Z,13.52
2022-08-14T01:27:24.437Z,13.85
2022-08-14T01:30:00.766Z,14.23
2022-08-14T01:32:45.198Z,11.85
2022-08-14T01:36:04.717Z,16.25
2022-08-14T01:38:05.835Z,13.88
2022-08-14T01:40:37.015Z,13.05
2022-08-14T01:43:18.597Z,11.23
2022-08-14T01:45:57.767Z,14.73
2022-08-14T01:48:37.085Z,14.50
2022-08-14T01:51:06.246Z,12.95
2022-08-14T01:53:54.937Z,13.77
2022-08-14T01:56:37.404Z,12.35
2022-08-14T01:59:19.701Z,12.63
2022-08-14T02:01:58.504Z,13.05
2022-08-14T02:04:40.993Z,13.77
2022-08-14T02:07:34.368Z,14.80
2022-08-14T02:10:13.152Z,14.52
2022-08-14T02:12:43.387Z,15.35
2022-08-14T02:15:10.891Z,13.82
2022-08-14T02:17:38.067Z,14.90
2022-08-14T02:20:08.691Z,14.07
2022-08-14T02:22:36.050Z,17.50
2022-08-14T02:25:14.839Z,15.80
2022-08-14T02:28:24.683Z,16.85
2022-08-14T02:30:33.938Z,14.32
2022-08-14T02:33:01.694Z,17.10
2022-08-14T02:35:32.804Z,12.90
2022-08-14T02:37:59.979Z,14.05
2022-08-14T02:40:32.486Z,20.08
2022-08-14T02:43:05.165Z,15.52
2022-08-14T02:45:38.285Z,17.67
2022-08-14T02:49:04.145Z,16.52
2022-08-14T02:51:00.521Z,14.10
2022-08-14T02:53:27.417Z,20.80
2022-08-14T02:56:03.091Z,16.38
2022-08-14T02:58:41.765Z,18.40
2022-08-14T03:01:10.329Z,18.88
2022-08-14T03:03:38.805Z,15.40
2022-08-14T03:06:08.915Z,14.63
2022-08-14T03:08:38.410Z,17.55
2022-08-14T03:11:07.753Z,16.15
2022-08-14T03:13:47.423Z,16.65
2022-08-14T03:16:19.873Z,16.63
2022-08-14T03:18:52.578Z,16.40
2022-08-14T03:21:23.003Z,13.65
2022-08-14T03:23:53.245Z,16.20
2022-08-14T03:26:30.270Z,15.57
2022-08-14T03:29:01.267Z,17.58
2022-08-14T03:31:29.281Z,16.23
2022-08-14T03:34:00.003Z,15.68
2022-08-14T03:37:39.071Z,18.10
2022-08-14T03:39:22.823Z,19.17
2022-08-14T03:41:53.460Z,16.48
2022-08-14T03:45:20.165Z,17.13
2022-08-14T03:47:08.398Z,15.02
2022-08-14T03:49:40.401Z,15.98
2022-08-14T03:52:37.726Z,15.50
2022-08-14T03:54:56.216Z,17.90
2022-08-14T03:57:22.966Z,16.63
2022-08-14T03:59:50.888Z,16.67
2022-08-14T04:02:33.099Z,17.13
2022-08-14T04:05:11.935Z,16.08
2022-08-14T04:07:49.937Z,16.88
2022-08-14T04:10:32.136Z,18.58
2022-08-14T04:13:03.706Z,18.70
2022-08-14T04:15:31.628Z,15.30
2022-08-14T04:18:02.785Z,14.80
2022-08-14T04:20:31.498Z,15.02
2022-08-14T04:22:58.335Z,15.73
2022-08-14T04:25:25.080Z,16.23
2022-08-14T04:28:02.344Z,16.15
2022-08-14T04:30:32.823Z,16.73
2022-08-14T04:33:06.382Z,15.40
2022-08-14T04:35:55.440Z,14.20
2022-08-14T04:38:42.204Z,16.48
2022-08-14T04:41:30.154Z,17.52
2022-08-14T04:43:57.467Z,16.05
2022-08-14T04:46:56.315Z,15.50
2022-08-14T04:49:15.224Z,19.58
2022-08-14T04:51:55.393Z,20.97
2022-08-14T04:54:27.072Z,23.63
2022-08-14T04:59:24.933Z,21.40
2022-08-14T05:01:56.932Z,22.85
2022-08-14T05:04:25.182Z,21.00
2022-08-14T05:06:55.206Z,19.15
2022-08-14T05:09:23.934Z,21.60
2022-08-14T05:11:51.506Z,23.27
2022-08-14T05:14:46.478Z,21.95
2022-08-14T05:17:10.791Z,19.30
2022-08-14T05:19:44.734Z,18.55
2022-08-14T05:22:26.996Z,18.25
2022-08-14T05:24:54.376Z,17.83
2022-08-14T05:27:23.228Z,17.25
2022-08-14T05:29:56.716Z,16.55
2022-08-14T05:32:27.246Z,18.75
2022-08-14T05:34:58.479Z,20.35
2022-08-14T05:37:28.090Z,16.75
2022-08-14T05:39:55.282Z,17.98
2022-08-14T05:42:28.967Z,17.73
2022-08-14T05:44:58.656Z,17.70
2022-08-14T05:47:28.589Z,18.63
2022-08-14T05:50:02.054Z,16.63
2022-08-14T05:52:48.897Z,16.50
2022-08-14T05:55:16.713Z,17.80
2022-08-14T05:57:47.754Z,17.73
2022-08-14T06:00:29.069Z,15.93
2022-08-14T06:02:59.903Z,17.30
2022-08-14T06:05:28.520Z,18.98
2022-08-14T06:07:57.535Z,17.85
2022-08-14T06:10:25.271Z,16.38
2022-08-14T06:12:56.555Z,16.13
2022-08-14T06:15:29.398Z,18.15
2022-08-14T06:17:59.282Z,15.75
2022-08-14T06:20:26.708Z,14.80
2022-08-14T06:22:55.177Z,13.60
2022-08-14T06:27:50.412Z,16.00
2022-08-14T06:30:19.606Z,14.20
2022-08-14T06:32:47.717Z,15.70
2022-08-14T06:35:23.536Z,14.95
2022-08-14T06:40:34.261Z,13.30
2022-08-14T06:45:36.149Z,14.02
2022-08-14T06:48:06.201Z,12.35
2022-08-14T06:50:39.295Z,12.23
2022-08-14T06:53:07.512Z,13.43
2022-08-14T06:55:37.095Z,13.02
2022-08-14T06:58:24.855Z,12.02
2022-08-14T07:01:14.855Z,12.48
2022-08-14T07:04:01.255Z,12.57
2022-08-14T07:06:46.863Z,12.52
2022-08-14T07:09:19.489Z,11.45
2022-08-14T07:11:49.754Z,12.35
2022-08-14T07:14:16.589Z,11.63
2022-08-14T07:16:43.599Z,12.40
2022-08-14T07:19:13.859Z,11.80
2022-08-14T07:21:41.731Z,12.45
2022-08-14T07:24:09.694Z,13.27
2022-08-14T07:26:48.455Z,14.02
2022-08-14T07:29:15.216Z,11.77
2022-08-14T07:31:44.495Z,15.65
2022-08-14T07:34:13.243Z,11.45
2022-08-14T07:37:01.131Z,11.60
2022-08-14T07:39:28.439Z,10.40
2022-08-14T07:41:56.582Z,12.45
2022-08-14T07:44:32.419Z,12.85
2022-08-14T07:47:04.411Z,13.27
2022-08-14T07:49:34.320Z,10.95
2022-08-14T07:52:05.242Z,9.57
2022-08-14T07:54:35.375Z,12.95
2022-08-14T07:57:12.131Z,11.15
2022-08-14T07:59:41.524Z,10.48
2022-08-14T08:02:19.361Z,11.05
2022-08-14T08:04:58.839Z,10.77
2022-08-14T08:07:31.431Z,10.00
2022-08-14T08:10:00.867Z,9.60
2022-08-14T08:12:31.073Z,11.65
2022-08-14T08:15:03.209Z,8.55
2022-08-14T08:17:42.579Z,9.13
2022-08-14T08:20:19.816Z,16.15
2022-08-14T08:22:49.911Z,8.68
2022-08-14T08:25:24.459Z,7.60
2022-08-14T08:28:09.039Z,9.95
2022-08-14T08:31:00.297Z,9.50
2022-08-14T08:33:37.475Z,8.45
2022-08-14T08:36:12.758Z,10.73
2022-08-14T08:39:15.063Z,11.25
2022-08-14T08:41:31.622Z,7.30
2022-08-14T08:44:05.979Z,9.10
2022-08-14T08:46:44.934Z,10.20
2022-08-14T08:51:43.105Z,8.65
2022-08-14T08:54:18.404Z,8.57
2022-08-14T08:56:50.148Z,7.45
2022-08-14T08:59:27.327Z,9.38
2022-08-14T09:02:05.449Z,9.60
2022-08-14T09:04:52.841Z,10.63
2022-08-14T09:07:27.241Z,9.98
2022-08-14T09:09:59.897Z,10.57
2022-08-14T09:12:32.831Z,10.57
2022-08-14T09:15:12.428Z,9.65
2022-08-14T09:17:42.354Z,7.90
2022-08-14T09:20:11.853Z,7.83
2022-08-14T09:22:47.813Z,9.25
2022-08-14T09:25:16.425Z,11.32
2022-08-14T09:27:43.828Z,10.88
2022-08-14T09:30:30.744Z,13.60
2022-08-14T09:33:09.068Z,8.27
2022-08-14T09:36:10.720Z,8.45
2022-08-14T09:39:22.886Z,9.60
2022-08-14T09:42:21.796Z,11.02
2022-08-14T09:45:08.343Z,8.60
2022-08-14T09:47:47.129Z,9.90
2022-08-14T09:50:25.651Z,12.52
2022-08-14T09:52:58.096Z,10.60
2022-08-14T09:55:28.229Z,10.60
2022-08-14T09:58:36.030Z,9.63
2022-08-14T10:01:09.908Z,9.18
2022-08-14T10:03:38.492Z,8.50
2022-08-14T10:06:09.197Z,9.95
2022-08-14T10:08:54.426Z,9.52
2022-08-14T10:11:34.962Z,9.68
2022-08-14T10:14:35.707Z,12.60
2022-08-14T10:17:06.432Z,9.55
2022-08-14T10:19:36.435Z,8.93
2022-08-14T10:23:14.876Z,9.18
2022-08-14T10:25:00.695Z,11.45
2022-08-14T10:27:28.867Z,8.10
2022-08-14T10:30:01.809Z,9.32
2022-08-14T10:32:41.887Z,11.43
2022-08-14T10:35:16.991Z,8.20
2022-08-14T10:37:48.380Z,9.45
2022-08-14T10:40:37.862Z,10.68
2022-08-14T10:43:27.802Z,9.90
2022-08-14T10:47:36.878Z,9.57
2022-08-14T10:49:00.328Z,8.65
2022-08-14T10:51:30.141Z,9.38
2022-08-14T10:54:16.527Z,7.75
2022-08-14T10:56:52.402Z,7.47
2022-08-14T10:59:19.161Z,7.50
2022-08-14T11:01:45.924Z,8.95
2022-08-14T11:04:30.616Z,7.47
2022-08-14T11:06:58.734Z,9.10
2022-08-14T11:09:26.227Z,8.85
2022-08-14T11:12:36.295Z,9.30
2022-08-14T11:14:59.108Z,10.07
2022-08-14T11:17:32.045Z,8.48
2022-08-14T11:20:00.987Z,9.35
2022-08-14T11:22:55.994Z,9.40
2022-08-14T11:25:23.756Z,7.80
2022-08-14T11:27:53.593Z,8.02
2022-08-14T11:30:50.849Z,8.57
2022-08-14T11:33:12.795Z,10.13
2022-08-14T11:35:47.383Z,9.05
2022-08-14T11:38:17.192Z,7.53
2022-08-14T11:40:46.981Z,6.72
2022-08-14T11:43:15.204Z,9.23
2022-08-14T11:45:48.875Z,9.95
2022-08-14T11:49:02.106Z,8.73
2022-08-14T11:51:24.056Z,8.30
2022-08-14T11:54:03.129Z,9.00
2022-08-14T11:56:44.066Z,9.15
2022-08-14T11:59:18.179Z,11.65
2022-08-14T12:01:48.959Z,8.27
2022-08-14T12:04:32.377Z,7.85
2022-08-14T12:07:01.801Z,7.82
2022-08-14T12:09:34.378Z,6.93
2022-08-14T12:12:13.036Z,7.13
2022-08-14T12:15:00.101Z,7.95
2022-08-14T12:17:28.776Z,7.28
2022-08-14T12:20:05.100Z,7.65
2022-08-14T12:22:42.297Z,14.95
2022-08-14T12:25:15.016Z,9.05
2022-08-14T12:27:53.978Z,8.35
2022-08-14T12:30:35.910Z,10.18
2022-08-14T12:33:08.902Z,7.25
2022-08-14T12:35:45.844Z,8.77
2022-08-14T12:38:14.846Z,6.75
2022-08-14T12:40:51.897Z,7.78
2022-08-14T12:43:21.961Z,10.65
2022-08-14T12:45:51.342Z,7.78
2022-08-14T12:48:21.003Z,13.43
2022-08-14T12:50:58.273Z,9.23
2022-08-14T12:53:38.507Z,7.88
2022-08-14T12:56:22.440Z,7.88
2022-08-14T12:58:59.231Z,7.40
2022-08-14T13:02:00.362Z,7.68
2022-08-14T13:04:19.138Z,6.85
2022-08-14T13:06:50.590Z,9.82
2022-08-14T13:09:19.148Z,9.60
2022-08-14T13:11:58.495Z,7.18
2022-08-14T13:14:47.929Z,7.57
2022-08-14T13:17:15.845Z,6.50
2022-08-14T13:19:45.500Z,6.15
2022-08-14T13:22:28.971Z,7.80
2022-08-14T13:25:00.282Z,8.18
2022-08-14T13:27:31.400Z,9.45
2022-08-14T13:30:01.863Z,7.63
2022-08-14T13:32:30.543Z,9.70
2022-08-14T13:34:58.665Z,7.20
2022-08-14T13:37:27.599Z,6.00
2022-08-14T13:39:56.691Z,11.00
2022-08-14T13:42:35.360Z,6.88
2022-08-14T13:45:04.518Z,6.43
2022-08-14T13:47:32.585Z,7.40
2022-08-14T13:50:04.506Z,6.93
2022-08-14T13:52:55.308Z,8.05
2022-08-14T13:55:31.453Z,5.95
2022-08-14T13:58:03.617Z,5.93
2022-08-14T14:00:35.737Z,8.10
2022-08-14T14:03:24.345Z,8.02
2022-08-14T14:05:54.921Z,6.13
2022-08-14T14:08:43.663Z,8.05
2022-08-14T14:11:15.799Z,6.78
2022-08-14T14:16:21.894Z,6.97
2022-08-14T14:18:56.592Z,8.00
2022-08-14T14:21:28.508Z,7.15
2022-08-14T14:23:56.470Z,8.23
2022-08-14T14:26:24.809Z,7.78
2022-08-14T14:28:57.099Z,6.95
2022-08-14T14:31:30.360Z,6.90
2022-08-14T14:34:07.781Z,7.07
2022-08-14T14:36:50.111Z,11.82
2022-08-14T14:39:22.116Z,7.78
2022-08-14T14:44:32.240Z,6.40
2022-08-14T14:46:59.254Z,6.13
2022-08-14T14:49:42.133Z,6.38
2022-08-14T14:52:27.090Z,8.45
2022-08-14T14:54:57.193Z,7.45
2022-08-14T14:57:35.603Z,6.68
2022-08-14T15:00:08.601Z,6.80
2022-08-14T15:02:43.189Z,6.38
2022-08-14T15:05:12.584Z,5.97
2022-08-14T15:07:40.294Z,5.80
2022-08-14T15:10:27.987Z,6.38
2022-08-14T15:12:57.775Z,7.00
2022-08-14T15:15:27.525Z,7.63
2022-08-14T15:17:54.744Z,6.18
2022-08-14T15:20:30.129Z,5.90
2022-08-14T15:22:58.942Z,6.05
2022-08-14T15:25:30.147Z,7.18
2022-08-14T15:28:01.792Z,7.65
2022-08-14T15:30:32.204Z,6.45
2022-08-14T15:32:59.882Z,5.80
2022-08-14T15:35:33.881Z,5.80
2022-08-14T15:38:08.035Z,7.15
2022-08-14T15:40:41.078Z,6.75
2022-08-14T15:43:12.802Z,6.35
2022-08-14T15:45:41.361Z,8.75
2022-08-14T15:48:12.631Z,7.78
2022-08-14T15:50:50.866Z,7.78
2022-08-14T15:53:18.625Z,7.30
2022-08-14T15:55:46.671Z,7.20
2022-08-14T15:58:15.081Z,6.40
2022-08-14T16:01:00.494Z,7.93
2022-08-14T16:03:36.582Z,6.82
2022-08-14T16:06:15.765Z,8.23
2022-08-14T16:08:50.432Z,8.15
2022-08-14T16:11:26.570Z,7.90
2022-08-14T16:13:57.521Z,5.45
2022-08-14T16:16:35.017Z,7.53
2022-08-14T16:19:18.462Z,9.88
2022-08-14T16:22:02.514Z,8.48
2022-08-14T16:25:00.134Z,8.57
2022-08-14T16:27:38.711Z,8.88
2022-08-14T16:30:20.682Z,8.30
2022-08-14T16:32:54.849Z,9.18
2022-08-14T16:35:42.697Z,10.73
2022-08-14T16:38:35.800Z,10.98
2022-08-14T16:41:23.316Z,9.27
2022-08-14T16:43:58.937Z,9.65
2022-08-14T16:46:28.311Z,10.05
2022-08-14T16:48:58.029Z,8.73
2022-08-14T16:51:28.151Z,7.80
2022-08-14T16:53:56.752Z,6.63
2022-08-14T16:56:28.165Z,9.63
2022-08-14T16:59:07.061Z,8.05
2022-08-14T17:01:36.799Z,8.25
2022-08-14T17:04:25.226Z,7.35
2022-08-14T17:06:57.706Z,8.48
2022-08-14T17:09:35.634Z,7.50
2022-08-14T17:12:08.454Z,6.90
2022-08-14T17:15:03.871Z,7.22
2022-08-14T17:17:40.586Z,10.75
2022-08-14T17:20:53.504Z,7.65
2022-08-14T17:23:03.285Z,7.70
2022-08-14T17:25:39.073Z,8.57
2022-08-14T17:28:51.863Z,9.07
2022-08-14T17:31:07.884Z,7.47
2022-08-14T17:33:44.189Z,7.53
2022-08-14T17:36:22.393Z,7.18
2022-08-14T17:42:03.053Z,8.48
2022-08-14T17:44:34.002Z,6.97
2022-08-14T17:47:13.636Z,7.50
2022-08-14T17:49:52.013Z,8.77
2022-08-14T17:52:34.404Z,6.88
2022-08-14T17:55:06.494Z,7.95
2022-08-14T17:57:35.170Z,17.75
2022-08-14T18:00:11.521Z,6.88
2022-08-14T18:02:41.250Z,6.20
2022-08-14T18:05:23.694Z,7.15
2022-08-14T18:08:34.050Z,7.05
2022-08-14T18:10:56.783Z,6.63
2022-08-14T18:13:49.830Z,8.00
2022-08-14T18:16:20.390Z,8.75
2022-08-14T18:18:51.404Z,8.68
2022-08-14T18:21:40.420Z,8.13
2022-08-14T18:24:28.653Z,7.22
2022-08-14T18:27:01.926Z,7.60
2022-08-14T18:29:31.640Z,7.32
2022-08-14T18:31:59.913Z,6.85
2022-08-14T18:34:36.960Z,7.70
2022-08-14T18:37:17.319Z,8.50
2022-08-14T18:40:03.314Z,8.95
2022-08-14T18:42:34.878Z,7.35
2022-08-14T18:48:05.399Z,7.15
2022-08-14T18:50:32.401Z,7.07
2022-08-14T18:53:10.673Z,6.95
2022-08-14T18:55:52.718Z,6.90
2022-08-14T18:58:31.768Z,8.30
2022-08-14T19:01:02.479Z,8.27
2022-08-14T19:03:36.506Z,7.63
2022-08-14T19:06:09.544Z,7.68
2022-08-14T19:08:48.282Z,9.38
2022-08-14T19:11:37.189Z,11.07
2022-08-14T19:14:06.644Z,7.35
2022-08-14T19:16:42.838Z,7.53
2022-08-14T19:19:12.563Z,7.10
2022-08-14T19:21:55.304Z,7.35
2022-08-14T19:24:43.910Z,7.72
2022-08-14T19:27:25.168Z,7.68
2022-08-14T19:30:20.169Z,7.07
2022-08-14T19:32:56.105Z,7.45
2022-08-14T19:35:49.685Z,9.57
2022-08-14T19:41:19.231Z,6.93
2022-08-14T19:43:50.928Z,9.93
2022-08-14T19:46:38.941Z,9.05
2022-08-14T19:49:22.982Z,7.25
2022-08-14T19:51:51.021Z,7.63
2022-08-14T19:54:29.037Z,7.68
2022-08-14T19:57:01.160Z,14.27
2022-08-14T19:59:36.633Z,8.55
2022-08-14T20:02:30.042Z,8.05
2022-08-14T20:05:03.643Z,8.18
2022-08-14T20:08:00.503Z,12.98
2022-08-14T20:11:03.835Z,9.20
2022-08-14T20:13:32.235Z,9.55
2022-08-14T20:16:11.967Z,7.82
2022-08-14T20:18:50.826Z,7.47
2022-08-14T20:21:18.737Z,7.25
2022-08-14T20:23:47.967Z,7.43
2022-08-14T20:26:30.893Z,7.25
2022-08-14T20:29:04.607Z,7.80
2022-08-14T20:31:36.378Z,8.25
2022-08-14T20:34:19.249Z,9.32
2022-08-14T20:37:17.412Z,7.25
2022-08-14T20:39:54.487Z,7.38
2022-08-14T20:42:43.882Z,8.82
2022-08-14T20:45:18.871Z,10.13
2022-08-14T20:48:01.511Z,8.25
2022-08-14T20:50:30.010Z,11.18
2022-08-14T20:52:58.583Z,12.45
2022-08-14T20:55:29.264Z,10.50
2022-08-14T20:57:58.899Z,10.20
2022-08-14T21:00:52.337Z,8.25
2022-08-14T21:58:46.030Z,9.65
2022-08-14T22:00:49.238Z,9.32
2022-08-14T22:03:24.297Z,9.88
2022-08-14T22:05:53.161Z,9.13
2022-08-14T22:08:27.066Z,12.45
2022-08-14T22:10:55.061Z,9.00
2022-08-14T22:13:26.723Z,9.77
2022-08-14T22:16:02.289Z,10.07
2022-08-14T22:18:30.971Z,11.38
2022-08-14T22:20:59.160Z,10.35
2022-08-14T22:23:27.920Z,9.48
2022-08-14T22:25:55.439Z,11.13
2022-08-14T22:28:33.368Z,9.45
2022-08-14T22:31:03.812Z,9.48
2022-08-14T22:33:38.048Z,8.27
2022-08-14T22:36:26.209Z,8.80
2022-08-14T22:38:54.433Z,9.70
2022-08-14T22:41:27.529Z,10.95
2022-08-14T22:44:19.927Z,11.52
2022-08-14T22:46:48.402Z,10.50
2022-08-14T22:50:30.274Z,8.45
2022-08-14T22:52:32.995Z,12.80
2022-08-14T22:54:54.566Z,10.50
